Time;durP1;ratioP1;P1;durP2;ratioP2;P2;SDS_P1;SDS_P2;PMS_P1;PMS_P2;Temp;Humidity;BMP_temperature;BMP_pressure;BME280_temperature;BME280_humidity;BME280_pressure;Samples;Min_cycle;Max_cycle;Signal;HPM_P1;HPM_P2
2021/04/09 00:00:14;;;;;;;15.58;10.43;;;;;;;3.01;68.76;100281.34;1753361;79;21120;-50
2021/04/09 00:02:42;;;;;;;18.62;11.33;;;;;;;3.01;68.86;100280.01;1754666;79;21167;-50
2021/04/09 00:09:10;;;;;;;18.77;11.80;;;;;;;3.03;69.38;100283.98;1755743;79;22435;-49
2021/04/09 00:11:40;;;;;;;17.75;10.70;;;;;;;2.94;69.58;100286.77;1722974;82;21133;-49
2021/04/09 00:14:10;;;;;;;18.80;12.37;;;;;;;2.94;69.80;100284.11;1715022;82;21352;-50
2021/04/09 00:16:40;;;;;;;20.23;12.47;;;;;;;2.92;69.84;100294.75;1715314;82;24220;-56
2021/04/09 00:19:12;;;;;;;17.98;11.95;;;;;;;2.90;70.19;100299.23;1715631;82;21010;-53
2021/04/09 00:21:43;;;;;;;17.48;12.23;;;;;;;2.88;70.45;100294.37;1715694;83;20998;-53
2021/04/09 00:24:12;;;;;;;19.67;13.20;;;;;;;2.86;70.70;100288.16;1714343;82;22015;-54
2021/04/09 00:26:40;;;;;;;19.98;12.60;;;;;;;2.85;70.87;100299.72;1716717;82;21448;-55
2021/04/09 00:29:08;;;;;;;18.37;13.00;;;;;;;2.84;70.95;100300.63;1715430;82;21038;-50
2021/04/09 00:31:36;;;;;;;18.87;12.47;;;;;;;2.83;71.16;100304.20;1714642;82;21033;-50
2021/04/09 00:34:05;;;;;;;17.07;11.78;;;;;;;2.80;71.41;100306.88;1714091;82;21136;-51
2021/04/09 00:36:35;;;;;;;18.32;12.10;;;;;;;2.79;71.62;100309.11;1714545;82;21006;-52
2021/04/09 00:39:06;;;;;;;24.32;11.93;;;;;;;2.76;71.82;100311.78;1714587;82;21389;-51
2021/04/09 00:41:37;;;;;;;17.85;11.78;;;;;;;2.75;72.12;100318.02;1713740;82;21439;-51
2021/04/09 00:44:09;;;;;;;19.40;12.88;;;;;;;2.73;72.49;100317.16;1715438;82;21530;-51
2021/04/09 00:46:37;;;;;;;18.20;12.37;;;;;;;2.70;72.53;100318.05;1716591;82;21189;-54
2021/04/09 00:49:05;;;;;;;18.25;13.18;;;;;;;2.68;72.57;100321.64;1715100;82;20938;-55
2021/04/09 00:51:33;;;;;;;19.60;12.88;;;;;;;2.65;72.88;100319.88;1714494;83;21436;-54
2021/04/09 00:54:04;;;;;;;17.20;11.75;;;;;;;2.62;73.11;100323.47;1715155;82;21006;-55
2021/04/09 00:56:32;;;;;;;18.23;12.90;;;;;;;2.62;73.27;100324.80;1672965;82;21021;-54
2021/04/09 00:59:01;;;;;;;19.87;12.78;;;;;;;2.62;73.41;100325.25;1709932;83;21124;-50
2021/04/09 01:01:29;;;;;;;18.73;12.28;;;;;;;2.62;73.51;100328.79;1715736;82;21113;-50
2021/04/09 01:03:59;;;;;;;15.20;11.22;;;;;;;2.61;73.63;100328.36;1687250;83;21217;-55
2021/04/09 01:06:27;;;;;;;20.23;13.40;;;;;;;2.60;73.95;100333.22;1715484;82;21014;-57
2021/04/09 01:08:55;;;;;;;16.85;11.75;;;;;;;2.58;74.13;100331.03;1718238;81;21152;-51
2021/04/09 01:11:22;;;;;;;18.42;12.88;;;;;;;2.58;74.20;100328.83;1723787;81;21120;-54
2021/04/09 01:13:52;;;;;;;16.32;12.20;;;;;;;2.58;74.52;100336.81;1723916;81;21536;-53
2021/04/09 01:16:46;;;;;;;17.50;12.73;;;;;;;2.54;74.68;100330.62;1724170;83;21834;-58
2021/04/09 01:19:46;;;;;;;21.75;14.20;;;;;;;2.58;75.00;100335.03;1815305;76;22696;-51
2021/04/09 01:22:14;;;;;;;19.55;12.73;;;;;;;2.51;75.09;100338.66;1782825;77;21080;-51
2021/04/09 01:25:19;;;;;;;17.82;13.20;;;;;;;2.51;75.25;100341.31;1782112;79;21241;-50
2021/04/09 01:28:16;;;;;;;20.68;14.18;;;;;;;2.52;75.58;100343.08;1833848;76;22370;-54
2021/04/09 01:31:20;;;;;;;21.20;13.68;;;;;;;2.46;75.70;100345.79;1792785;77;21009;-59
2021/04/09 01:33:51;;;;;;;20.55;14.30;;;;;;;2.46;75.97;100342.25;1824118;77;21411;-59
2021/04/09 01:36:22;;;;;;;18.23;13.23;;;;;;;2.44;76.04;100339.58;1824736;77;21694;-50
2021/04/09 01:39:07;;;;;;;20.62;13.98;;;;;;;2.43;76.17;100349.79;1824687;77;20993;-50
2021/04/09 01:41:37;;;;;;;20.55;13.43;;;;;;;2.44;76.34;100358.20;1824438;77;21016;-50
2021/04/09 01:44:07;;;;;;;19.57;13.38;;;;;;;2.42;76.54;100360.01;1792839;77;21013;-49
2021/04/09 01:46:39;;;;;;;17.85;12.15;;;;;;;2.42;76.82;100365.33;1824948;77;22406;-50
2021/04/09 01:49:08;;;;;;;20.92;14.45;;;;;;;2.42;76.82;100362.67;1793960;77;20996;-57
2021/04/09 01:51:36;;;;;;;24.37;14.85;;;;;;;2.43;76.96;100367.09;1793390;77;20997;-53
2021/04/09 01:54:04;;;;;;;22.10;14.83;;;;;;;2.44;77.01;100369.30;1824122;77;20961;-53
2021/04/09 01:56:32;;;;;;;22.35;14.53;;;;;;;2.43;77.08;100369.75;1823911;77;21000;-53
2021/04/09 01:59:00;;;;;;;19.80;14.78;;;;;;;2.42;77.17;100379.97;1824151;77;21634;-52
2021/04/09 02:01:29;;;;;;;23.12;15.45;;;;;;;2.42;77.26;100376.43;1824781;77;21596;-53
2021/04/09 02:03:57;;;;;;;22.25;15.10;;;;;;;2.42;77.42;100377.77;1824698;77;21103;-53
2021/04/09 02:06:25;;;;;;;22.95;15.63;;;;;;;2.41;77.58;100384.87;1779180;77;21170;-54
2021/04/09 02:08:53;;;;;;;20.30;15.38;;;;;;;2.40;77.57;100383.11;1824412;77;20950;-49
2021/04/09 02:11:23;;;;;;;26.57;16.45;;;;;;;2.41;77.69;100390.19;1823533;77;22164;-49
2021/04/09 02:13:51;;;;;;;19.02;13.45;;;;;;;2.38;77.87;100388.87;1824430;77;20961;-58
2021/04/09 02:16:19;;;;;;;22.52;14.63;;;;;;;2.38;77.96;100392.86;1824031;77;21175;-59
2021/04/09 02:18:47;;;;;;;21.00;14.70;;;;;;;2.36;78.04;100397.32;1792584;77;21213;-57
2021/04/09 02:21:16;;;;;;;23.27;14.83;;;;;;;2.32;78.16;100402.22;1824562;77;21772;-50
2021/04/09 02:23:44;;;;;;;22.35;14.25;;;;;;;2.30;78.21;100394.70;1824211;77;22270;-50
2021/04/09 02:26:12;;;;;;;17.62;12.63;;;;;;;2.30;78.37;100404.02;1820829;77;21479;-50
2021/04/09 02:28:40;;;;;;;21.90;15.23;;;;;;;2.26;78.44;100403.59;1795280;78;21001;-50
2021/04/09 02:31:11;;;;;;;20.85;14.80;;;;;;;2.25;78.58;100399.17;1798186;78;21224;-51
2021/04/09 02:33:38;;;;;;;20.37;14.20;;;;;;;2.23;78.65;100402.27;1798019;78;21061;-51
2021/04/09 02:36:15;;;;;;;20.35;14.40;;;;;;;2.24;78.77;100406.72;1796501;78;21492;-51
2021/04/09 02:39:06;;;;;;;21.90;14.05;;;;;;;2.22;78.99;100404.50;1796549;78;21601;-51
2021/04/09 02:41:37;;;;;;;;;;;;;;;2.21;79.04;100412.92;1800570;78;21600;-58
2021/04/09 02:44:05;;;;;;;24.70;15.20;;;;;;;2.18;79.12;100405.40;1797594;78;20449;-58
2021/04/09 02:46:38;;;;;;;18.73;13.93;;;;;;;2.16;79.22;100409.86;1800146;78;21132;-58
2021/04/09 02:49:14;;;;;;;19.07;14.43;;;;;;;2.13;79.26;100412.11;1797572;78;22111;-57
2021/04/09 02:51:42;;;;;;;21.62;15.15;;;;;;;2.13;79.34;100420.09;1796179;78;20994;-50
2021/04/09 02:54:13;;;;;;;24.82;16.05;;;;;;;2.13;79.42;100425.83;1767187;78;21185;-51
2021/04/09 02:56:41;;;;;;;20.45;14.33;;;;;;;2.10;79.44;100426.29;1795270;78;21144;-51
2021/04/09 02:59:11;;;;;;;20.90;14.30;;;;;;;2.10;79.56;100434.27;1796614;78;21140;-50
2021/04/09 03:01:41;;;;;;;19.73;14.30;;;;;;;2.09;79.69;100435.17;1795882;78;21373;-50
2021/04/09 03:04:08;;;;;;;20.80;14.05;;;;;;;2.07;79.82;100443.58;1797027;78;21554;-51
2021/04/09 03:06:37;;;;;;;22.45;15.85;;;;;;;2.05;79.82;100444.50;1754682;78;21227;-51
2021/04/09 03:09:05;;;;;;;19.80;14.35;;;;;;;2.01;79.99;100447.61;1795672;78;21583;-54
2021/04/09 03:11:34;;;;;;;22.93;15.28;;;;;;;2.00;80.19;100452.50;1796626;78;21005;-56
2021/04/09 03:14:02;;;;;;;23.85;15.25;;;;;;;2.00;80.37;100455.60;1797563;78;21366;-55
2021/04/09 03:16:36;;;;;;;21.20;15.05;;;;;;;1.98;80.59;100456.95;1795232;78;21006;-51
2021/04/09 03:19:04;;;;;;;22.35;15.28;;;;;;;1.98;80.58;100461.39;1799501;78;21111;-51
2021/04/09 03:21:33;;;;;;;26.20;16.12;;;;;;;1.96;80.89;100466.69;1799759;77;21540;-50
2021/04/09 03:24:01;;;;;;;24.63;15.83;;;;;;;1.94;80.82;100464.94;1800928;78;21017;-52
2021/04/09 03:26:29;;;;;;;21.80;15.88;;;;;;;1.93;81.00;100468.05;1798676;78;21361;-50
2021/04/09 03:28:58;;;;;;;24.85;16.27;;;;;;;1.95;81.17;100478.22;1798850;78;21011;-52
2021/04/09 03:31:26;;;;;;;25.55;17.92;;;;;;;1.95;81.21;100485.33;1798079;78;21932;-51
2021/04/09 03:33:54;;;;;;;23.90;15.80;;;;;;;1.93;81.32;100488.00;1795301;78;21002;-52
2021/04/09 03:36:21;;;;;;;22.48;15.55;;;;;;;1.92;81.42;100488.89;1794723;78;21613;-50
2021/04/09 03:38:49;;;;;;;24.85;15.88;;;;;;;1.91;81.57;100488.42;1799358;78;22340;-50
2021/04/09 03:41:19;;;;;;;26.90;17.67;;;;;;;1.91;81.61;100491.09;1798522;78;21117;-52
2021/04/09 03:43:47;;;;;;;32.63;20.23;;;;;;;1.92;81.63;100492.89;1800688;78;20994;-51
2021/04/09 03:46:14;;;;;;;32.55;20.92;;;;;;;1.94;81.61;100498.19;1796511;78;21276;-51
2021/04/09 03:48:44;;;;;;;35.78;23.35;;;;;;;1.92;81.73;100510.17;1796666;78;21145;-56
2021/04/09 03:51:12;;;;;;;35.60;22.82;;;;;;;1.93;81.86;100514.59;1800458;77;22279;-59
2021/04/09 03:53:40;;;;;;;33.33;22.32;;;;;;;1.94;81.93;100515.03;1793912;78;21069;-49
2021/04/09 03:56:09;;;;;;;34.13;21.40;;;;;;;1.95;82.12;100517.24;1797812;77;21003;-49
2021/04/09 03:58:37;;;;;;;32.53;21.33;;;;;;;1.97;82.21;100521.69;1794276;78;21586;-51
2021/04/09 04:01:06;;;;;;;30.92;20.15;;;;;;;1.99;82.32;100519.01;1795524;78;21084;-56
2021/04/09 04:03:33;;;;;;;31.62;21.77;;;;;;;2.00;82.46;100515.01;1798099;78;21399;-56
2021/04/09 04:06:04;;;;;;;35.78;21.85;;;;;;;2.03;82.41;100522.11;1796935;78;21459;-56
2021/04/09 04:08:32;;;;;;;34.18;20.60;;;;;;;2.07;82.64;100531.38;1796897;78;20942;-59
2021/04/09 04:11:00;;;;;;;27.42;19.05;;;;;;;2.11;82.56;100529.61;1797633;78;21685;-58
2021/04/09 04:13:28;;;;;;;28.65;20.00;;;;;;;2.15;82.54;100526.50;1797415;78;21376;-59
2021/04/09 04:15:56;;;;;;;27.77;17.70;;;;;;;2.21;82.56;100527.80;1794368;77;21376;-61
2021/04/09 04:18:24;;;;;;;30.52;19.23;;;;;;;2.25;82.58;100535.77;1799244;78;21001;-59
2021/04/09 04:20:52;;;;;;;30.65;18.60;;;;;;;2.30;82.49;100548.62;1799178;78;21422;-58
2021/04/09 04:23:22;;;;;;;25.50;18.67;;;;;;;2.37;82.38;100548.14;1800961;78;20959;-58
2021/04/09 04:25:50;;;;;;;32.45;21.05;;;;;;;2.41;82.20;100555.23;1797367;78;21057;-58
2021/04/09 04:28:20;;;;;;;30.62;19.00;;;;;;;2.45;82.04;100554.33;1816844;77;22168;-58
2021/04/09 04:30:51;;;;;;;29.42;18.60;;;;;;;2.49;81.95;100556.06;1822858;77;21024;-59
2021/04/09 04:33:21;;;;;;;29.27;20.23;;;;;;;2.52;81.77;100558.72;1824029;77;21561;-57
2021/04/09 04:35:58;;;;;;;28.87;18.70;;;;;;;2.62;81.70;100568.44;1806383;76;22882;-58
2021/04/09 04:38:26;;;;;;;28.75;19.60;;;;;;;2.59;81.42;100571.10;1747697;79;21074;-59
2021/04/09 04:40:54;;;;;;;27.50;18.65;;;;;;;2.59;81.31;100566.23;1746531;79;21357;-58
2021/04/09 04:43:22;;;;;;;33.48;21.15;;;;;;;2.61;81.19;100574.66;1747447;79;21631;-53
2021/04/09 04:45:50;;;;;;;32.63;21.73;;;;;;;2.63;81.18;100576.86;1749153;79;21049;-52
2021/04/09 04:48:19;;;;;;;28.77;19.32;;;;;;;2.67;81.00;100583.52;1747289;79;21018;-57
2021/04/09 04:50:48;;;;;;;27.85;19.12;;;;;;;2.72;80.91;100585.27;1748290;79;21410;-58
2021/04/09 04:53:16;;;;;;;29.48;20.75;;;;;;;2.76;80.80;100584.78;1751044;79;22113;-56
2021/04/09 04:55:44;;;;;;;37.40;20.80;;;;;;;2.78;80.68;100589.67;1749397;79;21578;-57
2021/04/09 04:58:13;;;;;;;33.50;21.45;;;;;;;2.81;80.55;100588.30;1749063;79;21013;-57
2021/04/09 05:00:42;;;;;;;32.85;20.85;;;;;;;2.84;80.53;100589.64;1747959;79;21598;-57
2021/04/09 05:03:10;;;;;;;30.77;19.23;;;;;;;2.89;80.44;100590.50;1748252;79;21629;-52
2021/04/09 05:05:38;;;;;;;28.12;19.92;;;;;;;2.95;80.31;100598.45;1748109;79;22088;-52
2021/04/09 05:08:06;;;;;;;28.50;19.45;;;;;;;3.01;80.11;100608.19;1748023;79;21124;-53
2021/04/09 05:10:34;;;;;;;27.15;19.70;;;;;;;3.05;79.91;100602.84;1753581;79;21546;-52
2021/04/09 05:13:02;;;;;;;33.90;21.17;;;;;;;3.09;79.81;100607.27;1753280;79;21160;-51
2021/04/09 05:15:30;;;;;;;30.23;20.48;;;;;;;3.14;79.66;100615.20;1753524;79;21125;-50
2021/04/09 05:17:59;;;;;;;31.97;21.05;;;;;;;3.24;79.54;100603.59;1753910;79;21976;-59
2021/04/09 05:20:27;;;;;;;29.77;19.67;;;;;;;3.31;79.07;100612.45;1751801;79;20982;-52
2021/04/09 05:22:56;;;;;;;32.30;20.97;;;;;;;3.39;78.93;100617.27;1749310;79;21377;-59
2021/04/09 05:25:25;;;;;;;34.83;20.68;;;;;;;3.46;78.68;100616.31;1755173;79;21124;-54
2021/04/09 05:27:53;;;;;;;28.52;19.87;;;;;;;3.53;78.44;100616.72;1754751;79;21100;-52
2021/04/09 05:30:22;;;;;;;26.40;19.02;;;;;;;3.62;78.31;100615.33;1758015;79;21709;-56
2021/04/09 05:32:50;;;;;;;32.40;21.20;;;;;;;3.75;77.83;100616.55;1756195;79;21006;-61
2021/04/09 05:35:21;;;;;;;29.37;21.20;;;;;;;3.80;77.60;100620.06;1753031;79;21161;-60
2021/04/09 05:37:49;;;;;;;29.63;20.77;;;;;;;3.87;77.48;100619.98;1741188;79;21130;-61
2021/04/09 05:40:20;;;;;;;34.40;22.50;;;;;;;3.97;77.12;100622.58;1745703;79;21562;-60
2021/04/09 05:42:58;;;;;;;31.40;20.62;;;;;;;4.09;76.61;100622.45;1744466;79;22497;-63
2021/04/09 05:45:26;;;;;;;36.08;22.07;;;;;;;4.19;76.24;100626.80;1748791;79;21014;-61
2021/04/09 05:47:58;;;;;;;32.58;20.70;;;;;;;4.34;76.01;100633.77;1739694;79;21212;-61
2021/04/09 05:50:24;;;;;;;31.02;21.10;;;;;;;4.48;75.51;100635.85;1742535;79;21308;-60
2021/04/09 05:52:53;;;;;;;31.70;20.52;;;;;;;4.61;74.59;100633.45;1738775;79;21141;-59
2021/04/09 05:55:21;;;;;;;29.82;20.52;;;;;;;4.73;74.24;100629.29;1741197;79;21551;-61
2021/04/09 05:57:49;;;;;;;35.20;21.05;;;;;;;4.81;73.53;100635.02;1740266;79;21156;-61
2021/04/09 06:00:18;;;;;;;33.42;20.85;;;;;;;4.88;73.25;100642.03;1742659;79;21149;-59
2021/04/09 06:02:47;;;;;;;30.27;20.75;;;;;;;4.97;72.97;100639.25;1742328;79;21542;-59
2021/04/09 06:05:15;;;;;;;31.10;20.68;;;;;;;5.04;72.41;100648.95;1745930;79;20966;-63
2021/04/09 06:07:44;;;;;;;28.50;20.30;;;;;;;5.06;71.93;100643.16;1739418;79;21243;-60
2021/04/09 06:10:12;;;;;;;29.27;19.85;;;;;;;5.03;71.70;100649.86;1743567;79;21018;-61
2021/04/09 06:12:40;;;;;;;33.50;21.37;;;;;;;5.03;71.72;100655.20;1742730;79;21188;-60
2021/04/09 06:15:10;;;;;;;30.60;20.77;;;;;;;5.02;71.82;100661.47;1740491;79;21108;-61
2021/04/09 06:17:43;;;;;;;36.15;21.90;;;;;;;5.03;71.75;100657.88;1738502;79;21586;-61
2021/04/09 06:20:16;;;;;;;34.92;22.30;;;;;;;5.01;71.67;100662.38;1743888;79;21501;-63
2021/04/09 06:22:46;;;;;;;30.97;21.45;;;;;;;4.99;71.51;100666.84;1738722;79;21061;-60
2021/04/09 06:25:16;;;;;;;31.55;22.98;;;;;;;4.96;71.60;100663.77;1739356;79;21137;-59
2021/04/09 06:27:45;;;;;;;38.02;21.75;;;;;;;4.94;71.60;100667.34;1741729;79;20994;-52
2021/04/09 06:30:13;;;;;;;34.78;22.42;;;;;;;4.93;71.71;100666.92;1738759;79;20983;-53
2021/04/09 06:32:45;;;;;;;31.20;21.40;;;;;;;4.91;71.87;100667.41;1738240;79;21810;-54
2021/04/09 06:35:14;;;;;;;31.85;22.05;;;;;;;4.88;71.85;100676.33;1749715;79;21013;-53
2021/04/09 06:37:42;;;;;;;33.18;22.25;;;;;;;4.84;71.86;100677.72;1759230;79;21539;-50
2021/04/09 06:40:13;;;;;;;40.30;23.55;;;;;;;4.82;72.01;100671.06;1764679;79;21181;-48
2021/04/09 06:42:42;;;;;;;35.50;23.83;;;;;;;4.85;72.14;100675.05;1759890;79;20985;-47
2021/04/09 06:45:12;;;;;;;37.20;24.30;;;;;;;4.88;72.12;100676.78;1760332;79;21183;-49
2021/04/09 06:47:40;;;;;;;32.65;23.07;;;;;;;4.87;72.16;100677.69;1757665;79;21438;-53
2021/04/09 06:50:10;;;;;;;35.78;22.42;;;;;;;4.84;72.18;100685.73;1755346;79;20982;-55
2021/04/09 06:52:39;;;;;;;32.75;21.82;;;;;;;4.82;72.11;100692.90;1760375;79;21139;-58
2021/04/09 06:55:09;;;;;;;35.68;21.70;;;;;;;4.84;71.93;100693.75;1759620;79;21526;-57
2021/04/09 06:57:38;;;;;;;33.10;21.97;;;;;;;4.83;71.91;100687.98;1760270;79;21362;-56
2021/04/09 07:00:12;;;;;;;30.05;22.37;;;;;;;4.81;71.99;100691.13;1760161;79;21152;-53
2021/04/09 07:02:44;;;;;;;34.53;22.60;;;;;;;4.81;72.09;100693.80;1733768;79;21183;-58
2021/04/09 07:05:14;;;;;;;30.80;21.45;;;;;;;4.83;72.29;100690.66;1758978;79;21127;-56
2021/04/09 07:07:43;;;;;;;36.58;22.93;;;;;;;4.88;72.24;100692.82;1755817;79;21116;-54
2021/04/09 07:10:11;;;;;;;36.23;22.93;;;;;;;4.93;72.26;100701.67;1757394;79;21589;-59
2021/04/09 07:12:40;;;;;;;36.55;24.37;;;;;;;5.03;72.06;100703.33;1763915;79;21116;-54
2021/04/09 07:15:17;;;;;;;33.48;23.30;;;;;;;5.10;71.93;100701.00;1757604;79;21131;-51
2021/04/09 07:17:47;;;;;;;34.35;25.08;;;;;;;5.17;71.53;100701.37;1732421;79;21104;-50
2021/04/09 07:20:22;;;;;;;35.83;22.75;;;;;;;5.23;71.27;100701.29;1755436;79;21128;-49
2021/04/09 07:22:56;;;;;;;31.27;21.20;;;;;;;5.34;71.08;100700.27;1756121;79;21719;-48
2021/04/09 07:25:34;;;;;;;35.92;23.77;;;;;;;5.44;70.54;100704.59;1755989;79;21537;-47
2021/04/09 07:28:11;;;;;;;36.98;23.45;;;;;;;5.50;69.88;100716.53;1756417;79;21010;-50
2021/04/09 07:30:50;;;;;;;32.15;22.35;;;;;;;5.63;69.69;100702.05;1823316;76;22770;-50
2021/04/09 07:33:22;;;;;;;31.60;21.02;;;;;;;5.63;69.47;100708.75;1763289;79;20998;-51
2021/04/09 07:36:00;;;;;;;39.35;22.52;;;;;;;5.76;69.03;100702.32;1816891;75;23421;-51
2021/04/09 07:38:34;;;;;;;35.98;22.30;;;;;;;5.77;68.60;100712.11;1762552;79;21053;-51
2021/04/09 07:41:06;;;;;;;31.27;20.85;;;;;;;5.85;68.06;100708.42;1759570;79;21389;-52
2021/04/09 07:43:40;;;;;;;29.42;21.33;;;;;;;5.90;67.43;100713.25;1762089;78;21295;-57
2021/04/09 07:46:17;;;;;;;28.60;19.42;;;;;;;5.94;66.87;100710.54;1762132;79;20977;-59
2021/04/09 07:49:04;;;;;;;28.47;18.82;;;;;;;6.08;66.36;100717.02;1815612;77;22711;-60
2021/04/09 07:51:34;;;;;;;26.40;18.23;;;;;;;6.10;65.22;100717.88;1781890;78;21850;-59
2021/04/09 07:54:09;;;;;;;74.42;23.50;;;;;;;6.18;64.25;100715.97;1768353;78;21357;-64
2021/04/09 07:56:45;;;;;;;49.80;21.12;;;;;;;6.26;64.24;100721.17;1766183;78;21033;-49
2021/04/09 07:59:13;;;;;;;49.90;21.17;;;;;;;6.32;63.91;100713.48;1767443;78;20943;-51
2021/04/09 08:01:47;;;;;;;30.08;17.50;;;;;;;6.37;63.40;100719.20;1766951;79;20997;-50
2021/04/09 08:04:16;;;;;;;27.20;17.00;;;;;;;6.44;62.38;100711.92;1768312;78;21878;-48
2021/04/09 08:06:44;;;;;;;21.15;15.58;;;;;;;6.52;61.65;100715.36;1772656;78;22060;-49
2021/04/09 08:09:11;;;;;;;20.57;14.23;;;;;;;6.58;60.73;100714.36;1771505;78;21029;-49
2021/04/09 08:11:40;;;;;;;19.98;13.20;;;;;;;6.63;58.66;100716.05;1766535;78;21389;-51
2021/04/09 08:14:13;;;;;;;18.10;13.43;;;;;;;6.67;58.49;100713.74;1763719;78;21033;-52
2021/04/09 08:16:47;;;;;;;18.70;13.45;;;;;;;6.72;58.13;100706.50;1770019;79;20970;-51
2021/04/09 08:19:23;;;;;;;19.07;13.18;;;;;;;6.78;57.75;100714.42;1765506;79;22072;-52
2021/04/09 08:21:56;;;;;;;18.98;12.85;;;;;;;6.85;57.71;100710.27;1768319;79;21274;-53
2021/04/09 08:24:31;;;;;;;17.15;12.10;;;;;;;6.93;56.12;100713.70;1765729;78;20993;-51
2021/04/09 08:26:59;;;;;;;15.70;10.20;;;;;;;7.00;54.84;100711.31;1764602;78;21057;-51
2021/04/09 08:29:30;;;;;;;14.85;10.58;;;;;;;7.04;53.57;100713.91;1767555;79;21013;-51
2021/04/09 08:32:02;;;;;;;14.00;9.75;;;;;;;7.06;53.66;100718.77;1764016;78;22129;-49
2021/04/09 08:34:29;;;;;;;12.23;7.75;;;;;;;7.05;51.95;100714.79;1766086;79;21618;-51
2021/04/09 08:36:58;;;;;;;8.60;6.30;;;;;;;7.06;50.28;100712.53;1761686;79;21155;-50
2021/04/09 08:39:28;;;;;;;13.80;8.50;;;;;;;7.10;48.39;100722.28;1725379;80;20977;-50
2021/04/09 08:41:56;;;;;;;11.48;8.00;;;;;;;7.13;49.54;100707.45;1735986;80;21008;-50
2021/04/09 08:44:25;;;;;;;16.73;9.53;;;;;;;7.17;50.25;100718.55;1732748;80;21994;-51
2021/04/09 08:46:53;;;;;;;11.90;8.88;;;;;;;7.24;50.39;100712.13;1732674;80;21604;-51
2021/04/09 08:49:21;;;;;;;13.55;9.43;;;;;;;7.32;50.34;100712.86;1777943;78;21541;-50
2021/04/09 08:51:50;;;;;;;13.93;9.08;;;;;;;7.41;50.07;100717.63;1772943;78;21171;-51
2021/04/09 08:54:29;;;;;;;12.68;9.05;;;;;;;7.46;49.54;100713.04;1736257;79;21099;-51
2021/04/09 08:56:58;;;;;;;13.25;9.90;;;;;;;7.50;49.64;100716.05;1775115;78;21560;-50
2021/04/09 08:59:47;;;;;;;10.82;7.60;;;;;;;7.54;49.47;100710.59;1775737;78;21025;-51
2021/04/09 09:02:24;;;;;;;8.73;6.22;;;;;;;7.63;46.20;100718.02;1773017;78;21029;-50
2021/04/09 09:05:04;;;;;;;13.58;8.80;;;;;;;7.70;44.05;100713.81;1773238;78;20977;-50
2021/04/09 09:07:52;;;;;;;11.43;7.95;;;;;;;7.81;45.63;100714.44;1774663;78;21032;-53
2021/04/09 09:10:34;;;;;;;12.63;6.70;;;;;;;7.93;44.31;100709.69;1774399;78;21348;-51
2021/04/09 09:13:15;;;;;;;14.85;8.50;;;;;;;7.97;42.52;100709.59;1776585;78;21047;-50
2021/04/09 09:15:55;;;;;;;14.15;9.73;;;;;;;7.99;44.00;100708.20;1776654;78;21073;-52
2021/04/09 09:18:28;;;;;;;12.07;9.08;;;;;;;8.01;44.59;100713.09;1777168;78;21122;-50
2021/04/09 09:21:20;;;;;;;13.10;8.38;;;;;;;8.02;44.96;100716.20;1778233;78;21052;-57
2021/04/09 09:23:52;;;;;;;11.68;6.83;;;;;;;8.07;44.68;100716.97;1776594;78;22205;-57
2021/04/09 09:26:34;;;;;;;8.75;6.90;;;;;;;8.15;42.62;100716.33;1774452;78;21131;-59
2021/04/09 09:29:19;;;;;;;9.80;7.47;;;;;;;8.22;42.97;100712.56;1769390;78;21550;-58
2021/04/09 09:32:07;;;;;;;11.38;8.10;;;;;;;8.35;42.57;100715.80;1724327;81;21122;-57
2021/04/09 09:34:40;;;;;;;12.28;8.13;;;;;;;8.42;41.88;100713.91;1774846;78;21867;-60
2021/04/09 09:37:13;;;;;;;15.63;8.73;;;;;;;8.40;42.29;100716.14;1770804;78;22132;-58
2021/04/09 09:39:58;;;;;;;14.45;7.58;;;;;;;8.42;42.71;100720.62;1773982;78;21581;-59
2021/04/09 09:45:31;;;;;;;9.50;6.92;;;;;;;8.42;42.18;100720.62;1857642;75;22777;-58
2021/04/09 09:48:15;;;;;;;10.90;6.10;;;;;;;8.34;41.55;100725.67;1803671;77;21633;-58
2021/04/09 09:50:44;;;;;;;7.97;6.03;;;;;;;8.35;41.07;100726.09;1800315;78;21197;-59
2021/04/09 09:53:12;;;;;;;7.78;5.55;;;;;;;8.37;40.88;100730.14;1789179;78;20974;-57
2021/04/09 09:55:42;;;;;;;11.57;5.40;;;;;;;8.40;39.73;100732.27;1801910;78;21679;-59
2021/04/09 09:58:23;;;;;;;7.90;5.55;;;;;;;8.40;39.65;100728.23;1802969;78;20965;-58
2021/04/09 10:00:59;;;;;;;7.33;4.80;;;;;;;8.39;39.91;100720.22;1805434;78;21667;-57
2021/04/09 10:03:35;;;;;;;10.90;6.53;;;;;;;8.46;39.81;100718.25;1798194;77;22273;-58
2021/04/09 10:06:08;;;;;;;8.83;5.15;;;;;;;8.53;40.07;100721.22;1801320;78;20966;-59
2021/04/09 10:08:37;;;;;;;4.62;3.95;;;;;;;8.64;39.79;100720.47;1796240;78;21402;-58
2021/04/09 10:11:17;;;;;;;8.25;5.72;;;;;;;8.76;39.25;100709.38;1807068;78;21147;-58
2021/04/09 10:13:46;;;;;;;6.80;4.78;;;;;;;8.87;38.44;100718.02;1799348;77;20938;-57
2021/04/09 10:16:19;;;;;;;9.70;4.50;;;;;;;8.89;38.37;100713.94;1802117;78;21129;-58
2021/04/09 10:18:56;;;;;;;7.37;5.07;;;;;;;8.90;38.62;100705.84;1800821;78;21717;-58
2021/04/09 10:21:30;;;;;;;7.97;5.10;;;;;;;9.02;38.40;100711.34;1801128;78;20972;-51
2021/04/09 10:24:19;;;;;;;8.05;5.35;;;;;;;9.14;38.20;100710.09;1799323;77;20926;-51
2021/04/09 10:29:38;;;;;;;7.12;4.12;;;;;;;9.16;35.33;100712.27;1862848;74;23203;-50
2021/04/09 10:32:17;;;;;;;4.97;3.70;;;;;;;8.98;34.02;100714.16;1826726;75;20966;-54
2021/04/09 10:34:49;;;;;;;5.65;3.62;;;;;;;8.87;34.93;100712.64;1830061;77;21368;-52
2021/04/09 10:37:24;;;;;;;10.23;6.10;;;;;;;8.84;35.15;100720.82;1827302;77;20989;-51
2021/04/09 10:39:53;;;;;;;6.83;5.03;;;;;;;8.83;35.30;100712.30;1790763;78;21244;-52
2021/04/09 10:42:21;;;;;;;6.30;4.17;;;;;;;8.83;35.35;100716.34;1767027;80;20982;-50
2021/04/09 10:44:49;;;;;;;6.70;4.12;;;;;;;8.85;34.94;100717.20;1758561;80;21451;-50
2021/04/09 10:47:18;;;;;;;5.90;3.92;;;;;;;8.82;34.71;100714.58;1794707;78;21372;-50
2021/04/09 10:49:46;;;;;;;6.03;4.20;;;;;;;8.77;35.28;100708.44;1725177;80;21160;-51
2021/04/09 10:52:15;;;;;;;6.55;4.70;;;;;;;8.77;35.15;100708.44;1777194;79;21040;-51
2021/04/09 10:54:46;;;;;;;6.97;4.10;;;;;;;8.75;35.30;100710.30;1771683;79;21013;-53
2021/04/09 10:57:18;;;;;;;4.97;3.92;;;;;;;8.77;34.90;100712.47;1778968;79;21140;-51
2021/04/09 10:59:50;;;;;;;7.22;4.60;;;;;;;8.80;35.30;100704.34;1775639;79;21381;-51
2021/04/09 11:02:23;;;;;;;7.17;4.83;;;;;;;8.84;34.96;100712.75;1781695;79;21585;-52
2021/04/09 11:05:00;;;;;;;6.55;4.67;;;;;;;8.91;35.61;100700.88;1857979;74;22575;-52
2021/04/09 11:07:47;;;;;;;7.62;5.87;;;;;;;8.85;35.95;100705.09;1840347;75;21387;-51
2021/04/09 11:10:35;;;;;;;7.55;5.20;;;;;;;8.87;35.83;100705.92;1833513;75;21119;-51
2021/04/09 11:13:04;;;;;;;6.42;5.22;;;;;;;8.87;36.31;100701.88;1845246;75;20997;-50
2021/04/09 11:15:39;;;;;;;9.25;6.05;;;;;;;8.87;36.31;100701.88;1837920;77;21508;-56
2021/04/09 11:18:07;;;;;;;6.95;5.25;;;;;;;8.92;35.99;100708.02;1839451;75;20973;-50
2021/04/09 11:20:38;;;;;;;7.50;5.40;;;;;;;8.93;36.26;100707.09;1841251;75;20966;-50
2021/04/09 11:23:10;;;;;;;6.70;5.30;;;;;;;8.95;36.57;100704.38;1839106;76;21906;-51
2021/04/09 11:25:44;;;;;;;8.48;5.85;;;;;;;9.02;36.58;100700.58;1845439;75;20973;-60
2021/04/09 11:28:29;;;;;;;9.55;6.33;;;;;;;9.07;36.69;100699.10;1844518;75;21586;-59
2021/04/09 11:31:05;;;;;;;11.95;6.28;;;;;;;9.14;36.69;100703.37;1841787;75;21127;-60
2021/04/09 11:33:35;;;;;;;7.20;5.45;;;;;;;9.19;36.53;100696.05;1837406;75;20997;-58
2021/04/09 11:36:26;;;;;;;7.22;5.00;;;;;;;9.31;36.33;100688.94;1840122;75;21372;-60
2021/04/09 11:39:09;;;;;;;6.67;4.70;;;;;;;9.44;34.48;100699.77;1837583;75;21013;-58
2021/04/09 11:41:47;;;;;;;6.67;4.65;;;;;;;9.50;34.76;100693.78;1799078;76;22779;-59
2021/04/09 11:44:33;;;;;;;8.45;5.15;;;;;;;9.44;35.09;100697.08;1753136;79;20969;-57
2021/04/09 11:47:23;;;;;;;8.48;4.83;;;;;;;9.45;35.21;100688.06;1759857;79;21561;-50
2021/04/09 11:50:13;;;;;;;7.97;5.17;;;;;;;9.39;35.25;100686.03;1764550;79;21009;-50
2021/04/09 11:53:02;;;;;;;8.83;5.10;;;;;;;9.40;35.66;100685.98;1762710;79;21009;-52